sensor_id;sensor_type;location;lat;lon;timestamp;P1;durP1;ratioP1;P2;durP2;ratioP2
57441;SDS011;43284;47.042;15.498;2022-10-16T00:01:39;89.13;;;37.33;;
57441;SDS011;43284;47.042;15.498;2022-10-16T00:04:06;80.05;;;37.92;;
57441;SDS011;43284;47.042;15.498;2022-10-16T00:06:35;83.13;;;37.75;;
57441;SDS011;43284;47.042;15.498;2022-10-16T00:09:03;91.38;;;42.88;;
57441;SDS011;43284;47.042;15.498;2022-10-16T00:11:32;87.90;;;39.42;;
57441;SDS011;43284;47.042;15.498;2022-10-16T00:14:03;102.88;;;40.67;;
57441;SDS011;43284;47.042;15.498;2022-10-16T00:16:32;86.55;;;37.20;;
57441;SDS011;43284;47.042;15.498;2022-10-16T00:19:00;87.97;;;39.47;;
57441;SDS011;43284;47.042;15.498;2022-10-16T00:21:29;90.32;;;38.63;;
57441;SDS011;43284;47.042;15.498;2022-10-16T00:23:59;88.13;;;40.83;;
57441;SDS011;43284;47.042;15.498;2022-10-16T00:26:29;94.80;;;42.40;;
57441;SDS011;43284;47.042;15.498;2022-10-16T00:28:59;83.05;;;38.38;;
57441;SDS011;43284;47.042;15.498;2022-10-16T00:31:27;79.95;;;36.47;;
57441;SDS011;43284;47.042;15.498;2022-10-16T00:33:55;73.72;;;34.50;;
57441;SDS011;43284;47.042;15.498;2022-10-16T00:36:24;78.47;;;36.38;;
57441;SDS011;43284;47.042;15.498;2022-10-16T00:38:53;80.95;;;36.40;;
57441;SDS011;43284;47.042;15.498;2022-10-16T00:41:22;81.53;;;37.33;;
57441;SDS011;43284;47.042;15.498;2022-10-16T00:43:58;86.35;;;38.03;;
57441;SDS011;43284;47.042;15.498;2022-10-16T00:46:27;80.13;;;36.53;;
57441;SDS011;43284;47.042;15.498;2022-10-16T00:51:34;92.80;;;38.85;;
57441;SDS011;43284;47.042;15.498;2022-10-16T00:54:03;82.93;;;38.08;;
57441;SDS011;43284;47.042;15.498;2022-10-16T00:56:35;95.40;;;39.70;;
57441;SDS011;43284;47.042;15.498;2022-10-16T00:59:03;78.95;;;37.03;;
57441;SDS011;43284;47.042;15.498;2022-10-16T01:01:41;74.68;;;35.22;;
57441;SDS011;43284;47.042;15.498;2022-10-16T01:04:09;68.25;;;33.30;;
57441;SDS011;43284;47.042;15.498;2022-10-16T01:06:40;71.00;;;33.25;;
57441;SDS011;43284;47.042;15.498;2022-10-16T01:18:06;87.22;;;38.75;;
57441;SDS011;43284;47.042;15.498;2022-10-16T01:21:21;92.97;;;39.30;;
57441;SDS011;43284;47.042;15.498;2022-10-16T01:27:06;71.75;;;34.28;;
57441;SDS011;43284;47.042;15.498;2022-10-16T01:30:04;75.28;;;33.47;;
57441;SDS011;43284;47.042;15.498;2022-10-16T01:32:59;75.70;;;33.47;;
57441;SDS011;43284;47.042;15.498;2022-10-16T01:35:42;72.55;;;33.55;;
57441;SDS011;43284;47.042;15.498;2022-10-16T01:41:18;66.03;;;32.80;;
57441;SDS011;43284;47.042;15.498;2022-10-16T01:43:56;66.07;;;30.98;;
57441;SDS011;43284;47.042;15.498;2022-10-16T01:46:36;76.80;;;32.50;;
57441;SDS011;43284;47.042;15.498;2022-10-16T01:49:07;60.92;;;30.65;;
57441;SDS011;43284;47.042;15.498;2022-10-16T01:51:37;71.40;;;31.48;;
57441;SDS011;43284;47.042;15.498;2022-10-16T01:54:06;66.60;;;30.55;;
57441;SDS011;43284;47.042;15.498;2022-10-16T01:56:36;65.28;;;31.27;;
57441;SDS011;43284;47.042;15.498;2022-10-16T01:59:06;71.35;;;31.05;;
57441;SDS011;43284;47.042;15.498;2022-10-16T02:01:40;69.82;;;33.42;;
57441;SDS011;43284;47.042;15.498;2022-10-16T02:04:20;68.28;;;32.25;;
57441;SDS011;43284;47.042;15.498;2022-10-16T02:06:49;74.45;;;33.13;;
57441;SDS011;43284;47.042;15.498;2022-10-16T02:09:19;73.95;;;33.78;;
57441;SDS011;43284;47.042;15.498;2022-10-16T02:11:47;94.03;;;40.70;;
57441;SDS011;43284;47.042;15.498;2022-10-16T02:14:17;69.40;;;32.63;;
57441;SDS011;43284;47.042;15.498;2022-10-16T02:16:47;69.97;;;32.10;;
57441;SDS011;43284;47.042;15.498;2022-10-16T02:19:15;73.00;;;33.08;;
57441;SDS011;43284;47.042;15.498;2022-10-16T02:22:00;73.30;;;32.30;;
57441;SDS011;43284;47.042;15.498;2022-10-16T02:24:34;72.78;;;30.83;;
57441;SDS011;43284;47.042;15.498;2022-10-16T02:30:02;61.28;;;29.42;;
57441;SDS011;43284;47.042;15.498;2022-10-16T02:32:44;70.10;;;30.10;;
57441;SDS011;43284;47.042;15.498;2022-10-16T02:35:15;82.68;;;32.45;;
57441;SDS011;43284;47.042;15.498;2022-10-16T02:37:46;71.13;;;31.25;;
57441;SDS011;43284;47.042;15.498;2022-10-16T02:40:15;70.07;;;30.33;;
57441;SDS011;43284;47.042;15.498;2022-10-16T02:42:44;79.55;;;35.10;;
57441;SDS011;43284;47.042;15.498;2022-10-16T02:45:17;74.60;;;35.13;;
57441;SDS011;43284;47.042;15.498;2022-10-16T02:47:45;75.00;;;33.00;;
57441;SDS011;43284;47.042;15.498;2022-10-16T02:50:12;85.90;;;36.85;;
57441;SDS011;43284;47.042;15.498;2022-10-16T02:52:40;85.15;;;37.28;;
57441;SDS011;43284;47.042;15.498;2022-10-16T02:55:07;87.45;;;35.38;;
57441;SDS011;43284;47.042;15.498;2022-10-16T02:57:35;82.00;;;37.25;;
57441;SDS011;43284;47.042;15.498;2022-10-16T03:00:06;95.95;;;39.30;;
57441;SDS011;43284;47.042;15.498;2022-10-16T03:02:39;216.65;;;46.85;;
57441;SDS011;43284;47.042;15.498;2022-10-16T03:05:07;262.33;;;49.88;;
57441;SDS011;43284;47.042;15.498;2022-10-16T03:07:35;283.50;;;50.65;;
57441;SDS011;43284;47.042;15.498;2022-10-16T03:10:02;146.40;;;42.08;;
57441;SDS011;43284;47.042;15.498;2022-10-16T03:12:30;103.45;;;41.95;;
57441;SDS011;43284;47.042;15.498;2022-10-16T03:14:59;96.28;;;41.53;;
57441;SDS011;43284;47.042;15.498;2022-10-16T03:17:27;107.97;;;41.42;;
57441;SDS011;43284;47.042;15.498;2022-10-16T03:19:54;106.97;;;40.17;;
57441;SDS011;43284;47.042;15.498;2022-10-16T03:22:22;118.80;;;42.60;;
57441;SDS011;43284;47.042;15.498;2022-10-16T03:24:50;133.85;;;47.33;;
57441;SDS011;43284;47.042;15.498;2022-10-16T03:27:18;121.38;;;45.72;;
57441;SDS011;43284;47.042;15.498;2022-10-16T03:29:45;130.45;;;47.58;;
57441;SDS011;43284;47.042;15.498;2022-10-16T03:32:13;164.98;;;50.25;;
57441;SDS011;43284;47.042;15.498;2022-10-16T03:34:40;188.07;;;47.35;;
57441;SDS011;43284;47.042;15.498;2022-10-16T03:37:08;226.27;;;51.60;;
57441;SDS011;43284;47.042;15.498;2022-10-16T03:39:36;162.88;;;46.83;;
57441;SDS011;43284;47.042;15.498;2022-10-16T03:42:03;181.00;;;48.42;;
57441;SDS011;43284;47.042;15.498;2022-10-16T03:44:31;133.50;;;45.70;;
57441;SDS011;43284;47.042;15.498;2022-10-16T03:46:58;149.02;;;47.95;;
57441;SDS011;43284;47.042;15.498;2022-10-16T03:49:25;153.02;;;45.03;;
57441;SDS011;43284;47.042;15.498;2022-10-16T03:51:53;122.53;;;43.38;;
57441;SDS011;43284;47.042;15.498;2022-10-16T03:54:20;80.72;;;39.05;;
57441;SDS011;43284;47.042;15.498;2022-10-16T03:56:48;81.15;;;37.00;;
57441;SDS011;43284;47.042;15.498;2022-10-16T03:59:15;77.85;;;38.10;;
57441;SDS011;43284;47.042;15.498;2022-10-16T04:01:43;79.30;;;37.38;;
57441;SDS011;43284;47.042;15.498;2022-10-16T04:04:11;95.43;;;41.17;;
57441;SDS011;43284;47.042;15.498;2022-10-16T04:06:38;108.88;;;42.22;;
57441;SDS011;43284;47.042;15.498;2022-10-16T04:09:05;115.18;;;41.85;;
57441;SDS011;43284;47.042;15.498;2022-10-16T04:11:33;105.05;;;41.60;;
57441;SDS011;43284;47.042;15.498;2022-10-16T04:14:00;101.95;;;42.90;;
57441;SDS011;43284;47.042;15.498;2022-10-16T04:16:28;110.32;;;43.70;;
57441;SDS011;43284;47.042;15.498;2022-10-16T04:18:56;136.85;;;45.83;;
57441;SDS011;43284;47.042;15.498;2022-10-16T04:21:23;143.80;;;45.60;;
57441;SDS011;43284;47.042;15.498;2022-10-16T04:23:51;151.98;;;44.08;;
57441;SDS011;43284;47.042;15.498;2022-10-16T04:26:19;92.85;;;39.58;;
57441;SDS011;43284;47.042;15.498;2022-10-16T04:28:46;87.63;;;38.42;;
57441;SDS011;43284;47.042;15.498;2022-10-16T04:31:14;82.85;;;38.75;;
57441;SDS011;43284;47.042;15.498;2022-10-16T04:33:44;86.80;;;39.35;;
57441;SDS011;43284;47.042;15.498;2022-10-16T04:36:12;80.63;;;37.67;;
57441;SDS011;43284;47.042;15.498;2022-10-16T04:38:39;83.38;;;38.22;;
57441;SDS011;43284;47.042;15.498;2022-10-16T04:41:07;80.38;;;36.35;;
57441;SDS011;43284;47.042;15.498;2022-10-16T04:43:35;71.50;;;34.33;;
57441;SDS011;43284;47.042;15.498;2022-10-16T04:46:04;67.93;;;33.78;;
57441;SDS011;43284;47.042;15.498;2022-10-16T04:48:31;76.97;;;33.75;;
57441;SDS011;43284;47.042;15.498;2022-10-16T04:50:59;66.57;;;31.83;;
57441;SDS011;43284;47.042;15.498;2022-10-16T04:53:26;61.08;;;31.73;;
57441;SDS011;43284;47.042;15.498;2022-10-16T04:55:54;69.07;;;31.70;;
57441;SDS011;43284;47.042;15.498;2022-10-16T04:58:23;61.65;;;30.75;;
57441;SDS011;43284;47.042;15.498;2022-10-16T05:00:50;58.88;;;30.00;;
57441;SDS011;43284;47.042;15.498;2022-10-16T05:03:18;60.80;;;31.60;;
57441;SDS011;43284;47.042;15.498;2022-10-16T05:05:46;61.20;;;30.80;;
57441;SDS011;43284;47.042;15.498;2022-10-16T05:08:14;67.55;;;32.25;;
57441;SDS011;43284;47.042;15.498;2022-10-16T05:10:42;64.45;;;32.28;;
57441;SDS011;43284;47.042;15.498;2022-10-16T05:13:11;70.43;;;33.03;;
57441;SDS011;43284;47.042;15.498;2022-10-16T05:15:39;56.20;;;29.45;;
57441;SDS011;43284;47.042;15.498;2022-10-16T05:18:08;61.22;;;31.02;;
57441;SDS011;43284;47.042;15.498;2022-10-16T05:20:35;61.53;;;28.85;;
57441;SDS011;43284;47.042;15.498;2022-10-16T05:23:02;59.38;;;29.45;;
57441;SDS011;43284;47.042;15.498;2022-10-16T05:25:30;59.55;;;30.08;;
57441;SDS011;43284;47.042;15.498;2022-10-16T05:27:57;62.83;;;29.80;;
57441;SDS011;43284;47.042;15.498;2022-10-16T05:30:25;62.08;;;28.48;;
57441;SDS011;43284;47.042;15.498;2022-10-16T05:32:52;59.88;;;29.25;;
57441;SDS011;43284;47.042;15.498;2022-10-16T05:35:20;59.72;;;29.48;;
57441;SDS011;43284;47.042;15.498;2022-10-16T05:37:48;53.08;;;27.38;;
57441;SDS011;43284;47.042;15.498;2022-10-16T05:40:15;49.50;;;27.65;;
57441;SDS011;43284;47.042;15.498;2022-10-16T05:42:43;53.20;;;27.98;;
57441;SDS011;43284;47.042;15.498;2022-10-16T05:45:11;51.30;;;27.77;;
57441;SDS011;43284;47.042;15.498;2022-10-16T05:47:38;65.82;;;30.40;;
57441;SDS011;43284;47.042;15.498;2022-10-16T05:50:06;61.33;;;29.42;;
57441;SDS011;43284;47.042;15.498;2022-10-16T05:52:34;61.60;;;30.85;;
57441;SDS011;43284;47.042;15.498;2022-10-16T05:55:02;73.97;;;34.83;;
57441;SDS011;43284;47.042;15.498;2022-10-16T05:57:30;74.28;;;34.65;;
57441;SDS011;43284;47.042;15.498;2022-10-16T05:59:58;80.20;;;36.65;;
57441;SDS011;43284;47.042;15.498;2022-10-16T06:02:25;79.35;;;37.17;;
57441;SDS011;43284;47.042;15.498;2022-10-16T06:04:52;64.47;;;31.92;;
57441;SDS011;43284;47.042;15.498;2022-10-16T06:07:20;62.25;;;30.90;;
57441;SDS011;43284;47.042;15.498;2022-10-16T06:09:50;60.88;;;29.63;;
57441;SDS011;43284;47.042;15.498;2022-10-16T06:12:19;57.50;;;28.17;;
57441;SDS011;43284;47.042;15.498;2022-10-16T06:14:47;59.88;;;29.35;;
57441;SDS011;43284;47.042;15.498;2022-10-16T06:17:15;65.97;;;29.67;;
57441;SDS011;43284;47.042;15.498;2022-10-16T06:19:48;71.28;;;30.92;;
57441;SDS011;43284;47.042;15.498;2022-10-16T06:22:15;79.15;;;33.33;;
57441;SDS011;43284;47.042;15.498;2022-10-16T06:24:43;73.65;;;33.83;;
57441;SDS011;43284;47.042;15.498;2022-10-16T06:27:10;66.63;;;33.17;;
57441;SDS011;43284;47.042;15.498;2022-10-16T06:29:37;66.15;;;33.45;;
57441;SDS011;43284;47.042;15.498;2022-10-16T06:32:05;89.90;;;34.45;;
57441;SDS011;43284;47.042;15.498;2022-10-16T06:34:32;91.10;;;34.30;;
57441;SDS011;43284;47.042;15.498;2022-10-16T06:37:00;78.95;;;35.70;;
57441;SDS011;43284;47.042;15.498;2022-10-16T06:39:27;77.38;;;35.60;;
57441;SDS011;43284;47.042;15.498;2022-10-16T06:41:55;84.82;;;39.15;;
57441;SDS011;43284;47.042;15.498;2022-10-16T06:44:22;75.60;;;36.78;;
57441;SDS011;43284;47.042;15.498;2022-10-16T06:46:50;80.63;;;36.53;;
57441;SDS011;43284;47.042;15.498;2022-10-16T06:49:18;94.00;;;37.60;;
57441;SDS011;43284;47.042;15.498;2022-10-16T06:51:48;82.93;;;37.83;;
57441;SDS011;43284;47.042;15.498;2022-10-16T06:54:16;88.18;;;38.88;;
57441;SDS011;43284;47.042;15.498;2022-10-16T06:56:43;85.03;;;38.03;;
57441;SDS011;43284;47.042;15.498;2022-10-16T06:59:11;88.90;;;40.80;;
57441;SDS011;43284;47.042;15.498;2022-10-16T07:01:38;86.88;;;40.08;;
57441;SDS011;43284;47.042;15.498;2022-10-16T07:04:05;86.15;;;39.92;;
57441;SDS011;43284;47.042;15.498;2022-10-16T07:06:33;84.00;;;38.53;;
57441;SDS011;43284;47.042;15.498;2022-10-16T07:09:01;92.30;;;41.10;;
57441;SDS011;43284;47.042;15.498;2022-10-16T07:11:31;86.05;;;40.75;;
57441;SDS011;43284;47.042;15.498;2022-10-16T07:13:58;89.72;;;41.67;;
57441;SDS011;43284;47.042;15.498;2022-10-16T07:16:26;92.80;;;42.88;;
57441;SDS011;43284;47.042;15.498;2022-10-16T07:18:55;92.95;;;42.28;;
57441;SDS011;43284;47.042;15.498;2022-10-16T07:21:32;92.78;;;42.90;;
57441;SDS011;43284;47.042;15.498;2022-10-16T07:24:05;87.53;;;41.47;;
57441;SDS011;43284;47.042;15.498;2022-10-16T07:26:38;84.93;;;41.17;;
57441;SDS011;43284;47.042;15.498;2022-10-16T07:29:13;85.75;;;39.17;;
57441;SDS011;43284;47.042;15.498;2022-10-16T07:31:42;80.82;;;39.42;;
57441;SDS011;43284;47.042;15.498;2022-10-16T07:34:11;84.28;;;39.90;;
57441;SDS011;43284;47.042;15.498;2022-10-16T07:36:40;91.40;;;41.17;;
57441;SDS011;43284;47.042;15.498;2022-10-16T07:39:07;88.25;;;40.20;;
57441;SDS011;43284;47.042;15.498;2022-10-16T07:41:35;95.85;;;43.67;;
57441;SDS011;43284;47.042;15.498;2022-10-16T07:44:03;97.97;;;43.55;;
57441;SDS011;43284;47.042;15.498;2022-10-16T07:46:30;95.20;;;44.20;;
57441;SDS011;43284;47.042;15.498;2022-10-16T07:48:59;89.97;;;41.70;;
57441;SDS011;43284;47.042;15.498;2022-10-16T07:51:27;100.97;;;46.28;;
57441;SDS011;43284;47.042;15.498;2022-10-16T07:53:54;91.82;;;43.97;;
57441;SDS011;43284;47.042;15.498;2022-10-16T07:56:22;88.72;;;42.25;;
57441;SDS011;43284;47.042;15.498;2022-10-16T07:58:49;82.68;;;41.53;;
57441;SDS011;43284;47.042;15.498;2022-10-16T08:01:17;76.60;;;39.47;;
57441;SDS011;43284;47.042;15.498;2022-10-16T08:03:45;69.30;;;35.85;;
57441;SDS011;43284;47.042;15.498;2022-10-16T08:06:18;67.88;;;35.30;;
57441;SDS011;43284;47.042;15.498;2022-10-16T08:08:46;64.68;;;34.80;;
57441;SDS011;43284;47.042;15.498;2022-10-16T08:11:14;64.47;;;34.92;;
57441;SDS011;43284;47.042;15.498;2022-10-16T08:13:41;66.88;;;36.42;;
57441;SDS011;43284;47.042;15.498;2022-10-16T08:16:09;67.30;;;35.85;;
57441;SDS011;43284;47.042;15.498;2022-10-16T08:18:38;61.85;;;34.88;;
57441;SDS011;43284;47.042;15.498;2022-10-16T08:21:06;56.20;;;33.08;;
57441;SDS011;43284;47.042;15.498;2022-10-16T08:23:39;55.50;;;32.25;;
57441;SDS011;43284;47.042;15.498;2022-10-16T08:26:07;54.10;;;30.17;;
57441;SDS011;43284;47.042;15.498;2022-10-16T08:28:35;52.58;;;30.42;;
57441;SDS011;43284;47.042;15.498;2022-10-16T08:31:13;52.00;;;30.35;;
57441;SDS011;43284;47.042;15.498;2022-10-16T08:33:42;52.58;;;30.08;;
57441;SDS011;43284;47.042;15.498;2022-10-16T08:36:12;49.60;;;29.05;;
57441;SDS011;43284;47.042;15.498;2022-10-16T08:38:41;48.05;;;28.80;;
57441;SDS011;43284;47.042;15.498;2022-10-16T08:43:40;51.40;;;29.20;;
57441;SDS011;43284;47.042;15.498;2022-10-16T08:46:32;51.88;;;29.83;;
57441;SDS011;43284;47.042;15.498;2022-10-16T08:49:01;54.10;;;29.75;;
57441;SDS011;43284;47.042;15.498;2022-10-16T08:51:33;50.58;;;28.65;;
57441;SDS011;43284;47.042;15.498;2022-10-16T08:54:08;57.75;;;29.10;;
57441;SDS011;43284;47.042;15.498;2022-10-16T08:56:40;53.58;;;29.23;;
57441;SDS011;43284;47.042;15.498;2022-10-16T08:59:09;52.25;;;30.20;;
57441;SDS011;43284;47.042;15.498;2022-10-16T09:01:47;50.57;;;30.23;;
57441;SDS011;43284;47.042;15.498;2022-10-16T09:04:26;53.75;;;29.92;;
57441;SDS011;43284;47.042;15.498;2022-10-16T09:07:13;48.95;;;28.73;;
57441;SDS011;43284;47.042;15.498;2022-10-16T09:10:08;56.17;;;28.88;;
57441;SDS011;43284;47.042;15.498;2022-10-16T09:15:27;51.63;;;29.50;;
57441;SDS011;43284;47.042;15.498;2022-10-16T09:21:11;51.10;;;27.45;;
57441;SDS011;43284;47.042;15.498;2022-10-16T09:23:51;50.25;;;27.35;;
57441;SDS011;43284;47.042;15.498;2022-10-16T09:26:18;53.10;;;29.38;;
57441;SDS011;43284;47.042;15.498;2022-10-16T09:28:47;47.10;;;26.48;;
57441;SDS011;43284;47.042;15.498;2022-10-16T09:31:19;45.67;;;26.65;;
57441;SDS011;43284;47.042;15.498;2022-10-16T09:33:49;45.72;;;27.02;;
57441;SDS011;43284;47.042;15.498;2022-10-16T09:36:25;44.20;;;26.00;;
57441;SDS011;43284;47.042;15.498;2022-10-16T09:39:07;49.33;;;26.80;;
57441;SDS011;43284;47.042;15.498;2022-10-16T09:41:38;45.15;;;26.25;;
57441;SDS011;43284;47.042;15.498;2022-10-16T09:44:24;45.58;;;25.58;;
57441;SDS011;43284;47.042;15.498;2022-10-16T09:47:05;44.45;;;25.67;;
57441;SDS011;43284;47.042;15.498;2022-10-16T09:50:00;44.60;;;24.98;;
57441;SDS011;43284;47.042;15.498;2022-10-16T09:52:32;41.20;;;25.02;;
57441;SDS011;43284;47.042;15.498;2022-10-16T09:55:09;42.10;;;25.05;;
57441;SDS011;43284;47.042;15.498;2022-10-16T09:57:51;42.72;;;25.55;;
57441;SDS011;43284;47.042;15.498;2022-10-16T10:00:20;43.60;;;24.05;;
57441;SDS011;43284;47.042;15.498;2022-10-16T10:02:49;41.58;;;24.48;;
57441;SDS011;43284;47.042;15.498;2022-10-16T10:05:18;41.13;;;23.13;;
57441;SDS011;43284;47.042;15.498;2022-10-16T10:07:58;40.50;;;23.73;;
57441;SDS011;43284;47.042;15.498;2022-10-16T10:10:29;40.22;;;23.38;;
57441;SDS011;43284;47.042;15.498;2022-10-16T10:12:59;43.45;;;23.92;;
57441;SDS011;43284;47.042;15.498;2022-10-16T10:15:27;41.70;;;24.17;;
57441;SDS011;43284;47.042;15.498;2022-10-16T10:18:02;37.58;;;22.40;;
57441;SDS011;43284;47.042;15.498;2022-10-16T10:20:43;35.97;;;22.10;;
57441;SDS011;43284;47.042;15.498;2022-10-16T10:23:22;40.20;;;23.08;;
57441;SDS011;43284;47.042;15.498;2022-10-16T10:28:29;35.10;;;21.75;;
57441;SDS011;43284;47.042;15.498;2022-10-16T10:36:32;39.42;;;21.13;;
57441;SDS011;43284;47.042;15.498;2022-10-16T10:54:03;30.23;;;18.48;;
57441;SDS011;43284;47.042;15.498;2022-10-16T10:56:50;33.88;;;19.58;;
57441;SDS011;43284;47.042;15.498;2022-10-16T10:59:35;29.52;;;18.15;;
57441;SDS011;43284;47.042;15.498;2022-10-16T11:07:27;27.20;;;16.35;;
57441;SDS011;43284;47.042;15.498;2022-10-16T11:10:13;26.23;;;16.02;;
57441;SDS011;43284;47.042;15.498;2022-10-16T11:13:10;28.65;;;16.73;;
57441;SDS011;43284;47.042;15.498;2022-10-16T11:16:06;25.73;;;16.58;;
57441;SDS011;43284;47.042;15.498;2022-10-16T11:18:47;29.00;;;16.40;;
57441;SDS011;43284;47.042;15.498;2022-10-16T11:21:23;25.52;;;16.67;;
57441;SDS011;43284;47.042;15.498;2022-10-16T11:27:09;26.92;;;16.65;;
57441;SDS011;43284;47.042;15.498;2022-10-16T11:29:47;26.13;;;16.02;;
57441;SDS011;43284;47.042;15.498;2022-10-16T11:32:34;28.38;;;16.27;;
57441;SDS011;43284;47.042;15.498;2022-10-16T11:35:37;27.35;;;15.77;;
57441;SDS011;43284;47.042;15.498;2022-10-16T11:41:01;20.17;;;13.75;;
57441;SDS011;43284;47.042;15.498;2022-10-16T11:46:34;21.95;;;13.75;;
57441;SDS011;43284;47.042;15.498;2022-10-16T11:51:50;26.83;;;15.70;;
57441;SDS011;43284;47.042;15.498;2022-10-16T11:57:33;27.63;;;16.73;;
57441;SDS011;43284;47.042;15.498;2022-10-16T12:00:20;25.67;;;16.70;;
57441;SDS011;43284;47.042;15.498;2022-10-16T12:08:43;23.13;;;15.63;;
57441;SDS011;43284;47.042;15.498;2022-10-16T12:19:29;27.27;;;16.08;;
57441;SDS011;43284;47.042;15.498;2022-10-16T12:22:02;23.88;;;16.10;;
57441;SDS011;43284;47.042;15.498;2022-10-16T12:24:41;25.50;;;17.07;;
57441;SDS011;43284;47.042;15.498;2022-10-16T12:27:27;24.67;;;15.48;;
57441;SDS011;43284;47.042;15.498;2022-10-16T12:30:00;25.30;;;15.48;;
57441;SDS011;43284;47.042;15.498;2022-10-16T12:32:32;21.30;;;14.43;;
57441;SDS011;43284;47.042;15.498;2022-10-16T12:35:01;26.17;;;17.48;;
57441;SDS011;43284;47.042;15.498;2022-10-16T12:37:35;24.42;;;16.05;;
57441;SDS011;43284;47.042;15.498;2022-10-16T12:40:11;20.33;;;13.43;;
57441;SDS011;43284;47.042;15.498;2022-10-16T12:42:52;21.98;;;14.00;;
57441;SDS011;43284;47.042;15.498;2022-10-16T12:45:27;20.52;;;13.93;;
57441;SDS011;43284;47.042;15.498;2022-10-16T12:48:00;23.92;;;14.80;;
57441;SDS011;43284;47.042;15.498;2022-10-16T12:53:02;20.05;;;13.80;;
57441;SDS011;43284;47.042;15.498;2022-10-16T12:55:51;20.75;;;13.45;;
57441;SDS011;43284;47.042;15.498;2022-10-16T13:07:02;21.90;;;13.63;;
57441;SDS011;43284;47.042;15.498;2022-10-16T13:09:39;23.30;;;14.18;;
57441;SDS011;43284;47.042;15.498;2022-10-16T13:12:39;21.30;;;13.98;;
57441;SDS011;43284;47.042;15.498;2022-10-16T13:15:30;23.88;;;14.80;;
57441;SDS011;43284;47.042;15.498;2022-10-16T13:18:16;21.85;;;15.05;;
57441;SDS011;43284;47.042;15.498;2022-10-16T13:20:53;20.88;;;14.57;;
57441;SDS011;43284;47.042;15.498;2022-10-16T13:23:36;20.67;;;13.43;;
57441;SDS011;43284;47.042;15.498;2022-10-16T13:26:44;22.17;;;14.60;;
57441;SDS011;43284;47.042;15.498;2022-10-16T13:29:21;22.77;;;15.43;;
57441;SDS011;43284;47.042;15.498;2022-10-16T13:31:49;21.38;;;14.52;;
57441;SDS011;43284;47.042;15.498;2022-10-16T13:34:17;24.73;;;15.18;;
57441;SDS011;43284;47.042;15.498;2022-10-16T13:36:49;28.27;;;15.35;;
57441;SDS011;43284;47.042;15.498;2022-10-16T13:39:25;21.48;;;14.40;;
57441;SDS011;43284;47.042;15.498;2022-10-16T13:42:04;25.35;;;14.27;;
57441;SDS011;43284;47.042;15.498;2022-10-16T13:44:43;20.77;;;13.55;;
57441;SDS011;43284;47.042;15.498;2022-10-16T13:47:21;19.95;;;14.27;;
57441;SDS011;43284;47.042;15.498;2022-10-16T13:50:00;20.95;;;14.57;;
57441;SDS011;43284;47.042;15.498;2022-10-16T13:52:31;22.63;;;13.85;;
57441;SDS011;43284;47.042;15.498;2022-10-16T13:54:58;22.45;;;14.63;;
57441;SDS011;43284;47.042;15.498;2022-10-16T13:57:26;27.10;;;15.85;;
57441;SDS011;43284;47.042;15.498;2022-10-16T13:59:53;27.35;;;16.70;;
57441;SDS011;43284;47.042;15.498;2022-10-16T14:05:08;25.45;;;16.73;;
57441;SDS011;43284;47.042;15.498;2022-10-16T14:07:40;27.95;;;17.50;;
57441;SDS011;43284;47.042;15.498;2022-10-16T14:13:07;24.67;;;16.67;;
57441;SDS011;43284;47.042;15.498;2022-10-16T14:15:45;22.63;;;16.13;;
57441;SDS011;43284;47.042;15.498;2022-10-16T14:18:17;26.40;;;17.60;;
57441;SDS011;43284;47.042;15.498;2022-10-16T14:20:48;25.88;;;17.00;;
57441;SDS011;43284;47.042;15.498;2022-10-16T14:23:23;25.10;;;17.15;;
57441;SDS011;43284;47.042;15.498;2022-10-16T14:28:36;30.35;;;17.40;;
57441;SDS011;43284;47.042;15.498;2022-10-16T14:33:57;29.85;;;18.45;;
57441;SDS011;43284;47.042;15.498;2022-10-16T14:36:25;31.15;;;18.45;;
57441;SDS011;43284;47.042;15.498;2022-10-16T14:41:31;27.70;;;17.67;;
57441;SDS011;43284;47.042;15.498;2022-10-16T14:44:05;30.30;;;17.48;;
57441;SDS011;43284;47.042;15.498;2022-10-16T14:46:38;31.83;;;19.75;;
57441;SDS011;43284;47.042;15.498;2022-10-16T14:51:38;31.00;;;19.45;;
57441;SDS011;43284;47.042;15.498;2022-10-16T14:54:12;34.33;;;20.33;;
57441;SDS011;43284;47.042;15.498;2022-10-16T14:56:48;29.13;;;19.77;;
57441;SDS011;43284;47.042;15.498;2022-10-16T14:59:35;31.70;;;20.70;;
57441;SDS011;43284;47.042;15.498;2022-10-16T15:02:18;31.50;;;20.90;;
57441;SDS011;43284;47.042;15.498;2022-10-16T15:04:54;36.50;;;21.30;;
57441;SDS011;43284;47.042;15.498;2022-10-16T15:07:22;33.08;;;21.73;;
57441;SDS011;43284;47.042;15.498;2022-10-16T15:09:50;36.83;;;21.98;;
57441;SDS011;43284;47.042;15.498;2022-10-16T15:12:18;36.10;;;22.23;;
57441;SDS011;43284;47.042;15.498;2022-10-16T15:14:45;39.80;;;23.33;;
57441;SDS011;43284;47.042;15.498;2022-10-16T15:17:13;35.30;;;22.10;;
57441;SDS011;43284;47.042;15.498;2022-10-16T15:19:40;34.65;;;22.40;;
57441;SDS011;43284;47.042;15.498;2022-10-16T15:22:09;36.63;;;22.45;;
57441;SDS011;43284;47.042;15.498;2022-10-16T15:24:41;37.80;;;23.08;;
57441;SDS011;43284;47.042;15.498;2022-10-16T15:27:08;37.88;;;23.15;;
57441;SDS011;43284;47.042;15.498;2022-10-16T15:29:36;36.60;;;23.25;;
57441;SDS011;43284;47.042;15.498;2022-10-16T15:32:03;35.60;;;21.80;;
57441;SDS011;43284;47.042;15.498;2022-10-16T15:34:31;34.90;;;21.40;;
57441;SDS011;43284;47.042;15.498;2022-10-16T15:37:02;39.22;;;22.63;;
57441;SDS011;43284;47.042;15.498;2022-10-16T15:39:30;34.15;;;21.23;;
57441;SDS011;43284;47.042;15.498;2022-10-16T15:41:58;37.05;;;22.00;;
57441;SDS011;43284;47.042;15.498;2022-10-16T15:44:26;37.80;;;23.02;;
57441;SDS011;43284;47.042;15.498;2022-10-16T15:46:56;34.50;;;22.13;;
57441;SDS011;43284;47.042;15.498;2022-10-16T15:49:24;41.72;;;23.58;;
57441;SDS011;43284;47.042;15.498;2022-10-16T15:51:52;43.35;;;23.42;;
57441;SDS011;43284;47.042;15.498;2022-10-16T15:54:20;41.60;;;23.45;;
57441;SDS011;43284;47.042;15.498;2022-10-16T15:56:48;44.33;;;23.35;;
57441;SDS011;43284;47.042;15.498;2022-10-16T15:59:16;38.97;;;22.98;;
57441;SDS011;43284;47.042;15.498;2022-10-16T16:01:44;41.22;;;22.98;;
57441;SDS011;43284;47.042;15.498;2022-10-16T16:04:11;43.78;;;23.13;;
57441;SDS011;43284;47.042;15.498;2022-10-16T16:06:39;44.05;;;23.13;;
57441;SDS011;43284;47.042;15.498;2022-10-16T16:09:11;39.25;;;23.67;;
57441;SDS011;43284;47.042;15.498;2022-10-16T16:11:39;42.28;;;23.30;;
57441;SDS011;43284;47.042;15.498;2022-10-16T16:14:09;39.75;;;23.05;;
57441;SDS011;43284;47.042;15.498;2022-10-16T16:16:39;38.92;;;22.75;;
57441;SDS011;43284;47.042;15.498;2022-10-16T16:19:07;39.03;;;23.33;;
57441;SDS011;43284;47.042;15.498;2022-10-16T16:21:35;39.28;;;22.95;;
57441;SDS011;43284;47.042;15.498;2022-10-16T16:24:03;38.17;;;23.10;;
57441;SDS011;43284;47.042;15.498;2022-10-16T16:26:34;44.90;;;24.27;;
57441;SDS011;43284;47.042;15.498;2022-10-16T16:29:06;44.40;;;25.23;;